Time;durP1;ratioP1;P1;durP2;ratioP2;P2;SDS_P1;SDS_P2;PMS_P1;PMS_P2;Temp;Humidity;BMP_temperature;BMP_pressure;BME280_temperature;BME280_humidity;BME280_pressure;Samples;Min_cycle;Max_cycle;Signal;HPM_P1;HPM_P2
2022/06/03 00:02:27;;;;;;;0.30;0.20;;;16.00;99.90;;;;;;5093189;28;21197;-85
2022/06/03 00:05:33;;;;;;;0.30;0.20;;;15.90;99.90;;;;;;5053636;28;20478;-85
2022/06/03 00:08:15;;;;;;;1.03;1.03;;;15.80;99.90;;;;;;5065287;28;20863;-86
2022/06/03 00:11:10;;;;;;;0.30;0.20;;;15.80;99.90;;;;;;5088274;28;20528;-85
2022/06/03 00:14:10;;;;;;;0.30;0.20;;;15.80;99.90;;;;;;5089834;28;20459;-86
2022/06/03 00:16:48;;;;;;;0.30;0.20;;;15.90;99.90;;;;;;5101098;28;20450;-87
2022/06/03 00:19:44;;;;;;;0.30;0.20;;;15.70;99.90;;;;;;5092854;28;20504;-84
2022/06/03 00:22:47;;;;;;;0.30;0.20;;;15.50;99.90;;;;;;5094768;28;20528;-85
2022/06/03 00:25:29;;;;;;;0.30;0.20;;;15.50;99.90;;;;;;5039836;28;20442;-84
2022/06/03 00:28:25;;;;;;;0.30;0.20;;;15.40;99.90;;;;;;5088729;28;20458;-85
2022/06/03 00:31:11;;;;;;;0.30;0.20;;;15.40;99.90;;;;;;5090947;28;20509;-85
2022/06/03 00:34:06;;;;;;;0.30;0.20;;;15.40;99.90;;;;;;5092214;28;20442;-82
2022/06/03 00:36:55;;;;;;;0.30;0.20;;;15.60;99.90;;;;;;5086442;28;20550;-83
2022/06/03 00:39:42;;;;;;;0.30;0.20;;;15.60;99.90;;;;;;5083491;28;20484;-84
2022/06/03 00:42:29;;;;;;;0.30;0.20;;;15.50;99.90;;;;;;5082638;28;20458;-83
2022/06/03 00:45:29;;;;;;;0.30;0.20;;;15.40;99.90;;;;;;5087805;28;20450;-82
2022/06/03 00:48:14;;;;;;;0.40;0.40;;;15.50;99.90;;;;;;5086392;28;20510;-82
2022/06/03 00:51:02;;;;;;;0.33;0.27;;;15.50;99.90;;;;;;5089397;28;21052;-83
2022/06/03 00:53:43;;;;;;;0.30;0.20;;;15.50;99.90;;;;;;5087899;28;20507;-83
2022/06/03 00:56:42;;;;;;;0.30;0.20;;;15.40;99.90;;;;;;5081991;28;20948;-83
2022/06/03 00:59:38;;;;;;;0.30;0.20;;;15.40;99.90;;;;;;5069897;28;20691;-82
2022/06/03 01:02:24;;;;;;;0.30;0.20;;;15.30;99.90;;;;;;5072549;28;20495;-83
2022/06/03 01:05:05;;;;;;;0.30;0.20;;;15.30;99.90;;;;;;5087160;28;20494;-82
2022/06/03 01:07:44;;;;;;;0.40;0.20;;;15.20;99.90;;;;;;5089225;28;20465;-82
2022/06/03 01:10:35;;;;;;;0.30;0.30;;;15.10;99.90;;;;;;5086379;28;20446;-83
2022/06/03 01:13:23;;;;;;;0.40;0.20;;;15.10;99.90;;;;;;5085589;28;20515;-83
2022/06/03 01:15:58;;;;;;;0.30;0.20;;;15.00;99.90;;;;;;5085915;28;20463;-82
2022/06/03 01:18:39;;;;;;;0.40;0.30;;;14.90;99.90;;;;;;5083842;28;20461;-82
2022/06/03 01:21:20;;;;;;;0.30;0.20;;;15.00;99.90;;;;;;5088581;28;20457;-82
2022/06/03 01:24:20;;;;;;;0.30;0.20;;;14.90;99.90;;;;;;5089039;28;20481;-82
2022/06/03 01:27:11;;;;;;;0.30;0.20;;;14.90;99.90;;;;;;5088519;28;20458;-82
2022/06/03 01:30:10;;;;;;;0.30;0.20;;;14.90;99.90;;;;;;5087739;28;20458;-82
2022/06/03 01:33:13;;;;;;;0.30;0.20;;;14.90;99.90;;;;;;5089049;28;20492;-82
2022/06/03 01:36:23;;;;;;;0.30;0.20;;;14.80;99.90;;;;;;5061340;28;20495;-83
2022/06/03 01:39:06;;;;;;;0.30;0.20;;;14.80;99.90;;;;;;5088813;28;20524;-83
2022/06/03 01:41:56;;;;;;;0.30;0.20;;;14.80;99.90;;;;;;5082231;28;20495;-84
2022/06/03 01:44:53;;;;;;;0.30;0.20;;;14.70;99.90;;;;;;5082045;28;20461;-84
2022/06/03 01:48:16;;;;;;;0.30;0.20;;;14.70;99.90;;;;;;5084105;28;20589;-85
2022/06/03 01:51:19;;;;;;;0.30;0.20;;;14.90;99.90;;;;;;5004169;28;20491;-84
2022/06/03 01:54:21;;;;;;;0.30;0.20;;;14.90;99.90;;;;;;5067092;28;20459;-84
2022/06/03 01:57:22;;;;;;;0.40;0.30;;;14.90;99.90;;;;;;5090505;28;20462;-84
2022/06/03 02:00:14;;;;;;;0.30;0.20;;;14.80;99.90;;;;;;5083820;28;20522;-84
2022/06/03 02:02:54;;;;;;;0.30;0.20;;;14.80;99.90;;;;;;5084153;28;20442;-86
2022/06/03 02:05:55;;;;;;;0.30;0.20;;;14.80;99.90;;;;;;5084359;28;20750;-85
2022/06/03 02:09:02;;;;;;;0.30;0.20;;;14.80;99.90;;;;;;5084255;28;20463;-84
2022/06/03 02:11:49;;;;;;;0.30;0.20;;;14.80;99.90;;;;;;5075538;28;20500;-84
2022/06/03 02:14:47;;;;;;;0.33;0.23;;;14.70;99.90;;;;;;5084648;28;20512;-85
2022/06/03 02:17:52;;;;;;;0.40;0.20;;;14.60;99.90;;;;;;5062195;28;20468;-84
2022/06/03 02:20:54;;;;;;;0.30;0.20;;;14.70;99.90;;;;;;5082520;28;20464;-84
2022/06/03 02:23:57;;;;;;;0.30;0.20;;;14.70;99.90;;;;;;5087861;28;20522;-85
2022/06/03 02:26:47;;;;;;;0.30;0.30;;;14.70;99.90;;;;;;5089991;28;20458;-84
2022/06/03 02:32:49;;;;;;;0.30;0.20;;;14.70;99.90;;;;;;5078903;28;20552;-84
2022/06/03 02:35:35;;;;;;;0.40;0.20;;;14.70;99.90;;;;;;5086089;28;21007;-83
2022/06/03 02:38:33;;;;;;;0.30;0.20;;;14.70;99.90;;;;;;5076966;28;20467;-84
2022/06/03 02:41:22;;;;;;;0.30;0.20;;;14.70;99.90;;;;;;5079197;28;20462;-84
2022/06/03 02:44:09;;;;;;;0.30;0.20;;;14.70;99.90;;;;;;5081258;28;20433;-84
2022/06/03 02:47:00;;;;;;;0.37;0.27;;;14.70;99.90;;;;;;5080745;28;20893;-84
2022/06/03 02:50:09;;;;;;;0.30;0.20;;;14.70;99.90;;;;;;5081768;28;20448;-84
2022/06/03 02:53:11;;;;;;;0.30;0.20;;;14.60;99.90;;;;;;5082431;28;20483;-85
2022/06/03 02:56:17;;;;;;;0.30;0.20;;;14.70;99.90;;;;;;5082569;28;20523;-84
2022/06/03 02:59:13;;;;;;;0.30;0.20;;;14.60;99.90;;;;;;5078392;28;20442;-84
2022/06/03 03:02:04;;;;;;;0.30;0.20;;;14.50;99.90;;;;;;5081264;28;20512;-84
2022/06/03 03:04:57;;;;;;;0.30;0.20;;;14.60;99.90;;;;;;5083875;28;20531;-84
2022/06/03 03:07:44;;;;;;;0.30;0.30;;;14.60;99.90;;;;;;5081052;28;20509;-83
2022/06/03 03:10:21;;;;;;;0.40;0.30;;;14.50;99.90;;;;;;5081443;28;20458;-84
2022/06/03 03:13:26;;;;;;;0.30;0.20;;;14.50;99.90;;;;;;5084527;28;20493;-85
2022/06/03 03:16:21;;;;;;;0.30;0.20;;;14.50;99.90;;;;;;5099100;28;20461;-84
2022/06/03 03:19:15;;;;;;;0.30;0.20;;;14.40;99.90;;;;;;5091964;28;20471;-85
2022/06/03 03:22:08;;;;;;;0.30;0.20;;;14.50;99.90;;;;;;5082910;28;20948;-84
2022/06/03 03:25:26;;;;;;;0.30;0.20;;;14.40;99.90;;;;;;5089738;28;20490;-84
2022/06/03 03:28:23;;;;;;;0.50;0.50;;;14.50;99.90;;;;;;5053583;28;20451;-84
2022/06/03 03:31:03;;;;;;;0.30;0.20;;;14.50;99.90;;;;;;5040569;28;20467;-85
2022/06/03 03:34:04;;;;;;;0.30;0.20;;;14.50;99.90;;;;;;5079824;28;20536;-85
2022/06/03 03:37:03;;;;;;;0.30;0.20;;;14.50;99.90;;;;;;5084693;28;21150;-83
2022/06/03 03:40:00;;;;;;;0.30;0.20;;;14.50;99.90;;;;;;5085734;28;20459;-83
2022/06/03 03:43:05;;;;;;;0.30;0.20;;;14.50;99.90;;;;;;5084072;28;20453;-83
2022/06/03 03:45:54;;;;;;;0.30;0.20;;;14.50;99.90;;;;;;5083780;28;20467;-84
2022/06/03 03:48:53;;;;;;;0.30;0.20;;;14.60;99.90;;;;;;5085246;28;20465;-85
2022/06/03 03:51:41;;;;;;;0.50;0.27;;;14.60;99.90;;;;;;5084180;28;20880;-84
2022/06/03 03:54:40;;;;;;;0.60;0.60;;;14.60;99.90;;;;;;5086112;28;21060;-85
2022/06/03 03:57:43;;;;;;;0.30;0.20;;;14.60;99.90;;;;;;5086296;28;20459;-84
2022/06/03 04:00:23;;;;;;;0.30;0.30;;;14.60;99.90;;;;;;5082215;28;20452;-84
2022/06/03 04:03:26;;;;;;;0.30;0.20;;;14.60;99.90;;;;;;5079900;28;21166;-84
2022/06/03 04:06:27;;;;;;;0.30;0.20;;;14.70;99.90;;;;;;5074061;28;20446;-84
2022/06/03 04:09:25;;;;;;;0.30;0.20;;;14.80;99.90;;;;;;5082732;28;20454;-86
2022/06/03 04:12:21;;;;;;;0.30;0.20;;;14.80;99.90;;;;;;5085465;28;20491;-85
2022/06/03 04:15:22;;;;;;;0.30;0.20;;;14.70;99.90;;;;;;5085125;28;20485;-85
2022/06/03 04:18:29;;;;;;;0.30;0.20;;;14.80;99.90;;;;;;5079168;28;20501;-86
2022/06/03 04:21:24;;;;;;;0.30;0.20;;;14.90;99.90;;;;;;5083181;28;22221;-84
2022/06/03 04:24:34;;;;;;;0.40;0.30;;;15.00;99.90;;;;;;5082104;28;20477;-86
2022/06/03 04:27:22;;;;;;;0.30;0.20;;;15.00;99.90;;;;;;5055153;28;21182;-86
2022/06/03 04:30:26;;;;;;;0.30;0.20;;;15.10;99.90;;;;;;5086441;28;20467;-84
2022/06/03 04:33:32;;;;;;;0.30;0.20;;;15.30;99.90;;;;;;5088077;28;20487;-85
2022/06/03 04:36:32;;;;;;;0.30;0.20;;;15.40;99.90;;;;;;5081193;28;20612;-85
2022/06/03 04:39:40;;;;;;;0.30;0.20;;;15.50;99.90;;;;;;5086784;28;20434;-85
2022/06/03 04:42:56;;;;;;;0.30;0.20;;;15.60;99.90;;;;;;5084200;28;20451;-85
2022/06/03 04:46:10;;;;;;;0.30;0.20;;;15.70;99.90;;;;;;5083688;28;20460;-84
2022/06/03 04:49:13;;;;;;;0.30;0.20;;;15.80;99.90;;;;;;5086526;28;20470;-83
2022/06/03 04:52:20;;;;;;;0.30;0.20;;;15.80;99.90;;;;;;5084104;28;20496;-88
2022/06/03 04:55:24;;;;;;;0.30;0.30;;;15.90;99.90;;;;;;5085818;28;20455;-85
2022/06/03 04:58:30;;;;;;;0.40;0.37;;;16.00;99.90;;;;;;5080004;28;20452;-85
2022/06/03 05:01:51;;;;;;;0.30;0.20;;;16.10;99.90;;;;;;5073137;28;20457;-85
2022/06/03 05:05:06;;;;;;;0.30;0.20;;;16.10;99.90;;;;;;5040351;28;20518;-85
2022/06/03 05:08:25;;;;;;;0.30;0.20;;;16.20;99.90;;;;;;5083982;28;20501;-85
2022/06/03 05:11:38;;;;;;;0.30;0.20;;;16.40;99.90;;;;;;5078871;28;20447;-84
2022/06/03 05:14:47;;;;;;;0.30;0.20;;;16.50;99.90;;;;;;5082647;28;20457;-85
2022/06/03 05:17:51;;;;;;;0.30;0.20;;;16.70;99.90;;;;;;5053869;28;20453;-85
2022/06/03 05:21:05;;;;;;;0.30;0.20;;;16.70;99.90;;;;;;5080825;28;20468;-85
2022/06/03 05:24:02;;;;;;;0.30;0.20;;;16.80;99.90;;;;;;5022090;28;21060;-85
2022/06/03 05:27:16;;;;;;;0.30;0.20;;;16.80;99.90;;;;;;5079532;28;20694;-85
2022/06/03 05:30:16;;;;;;;0.30;0.20;;;16.90;99.90;;;;;;5082812;28;20850;-85
2022/06/03 05:33:14;;;;;;;0.30;0.20;;;16.90;99.90;;;;;;5081719;28;20477;-85
2022/06/03 05:36:29;;;;;;;0.30;0.20;;;17.10;99.90;;;;;;5083992;28;20454;-85
2022/06/03 05:39:29;;;;;;;0.40;0.30;;;17.40;99.90;;;;;;5081759;28;20466;-85
2022/06/03 05:42:29;;;;;;;0.30;0.20;;;17.60;99.90;;;;;;5077240;28;20454;-85
2022/06/03 05:45:22;;;;;;;0.30;0.20;;;17.60;99.90;;;;;;5080732;28;20447;-85
2022/06/03 05:47:54;;;;;;;0.40;0.30;;;17.50;99.70;;;;;;5085566;28;20459;-85
2022/06/03 05:50:31;;;;;;;0.30;0.20;;;17.70;99.90;;;;;;5084849;28;21140;-86
2022/06/03 05:53:12;;;;;;;0.40;0.30;;;17.80;99.50;;;;;;5083643;28;20482;-85
2022/06/03 05:55:48;;;;;;;0.30;0.20;;;18.00;99.20;;;;;;5081514;28;21131;-85
2022/06/03 05:58:39;;;;;;;0.30;0.20;;;18.00;99.20;;;;;;5082314;28;20459;-85
2022/06/03 06:01:33;;;;;;;0.40;0.20;;;18.30;99.10;;;;;;5078884;28;20459;-85
2022/06/03 06:04:11;;;;;;;0.40;0.20;;;18.30;99.60;;;;;;5084128;28;20461;-85
2022/06/03 06:06:52;;;;;;;0.40;0.20;;;18.40;97.70;;;;;;5084787;28;20455;-88
2022/06/03 06:09:38;;;;;;;0.30;0.20;;;18.30;98.80;;;;;;5087313;28;20490;-87
2022/06/03 06:12:20;;;;;;;0.40;0.20;;;18.40;98.50;;;;;;5078253;28;20486;-85
2022/06/03 06:15:03;;;;;;;0.40;0.20;;;18.50;98.30;;;;;;5089275;28;20462;-85
2022/06/03 06:17:49;;;;;;;0.40;0.20;;;18.50;99.00;;;;;;5087775;28;20554;-84
2022/06/03 06:20:30;;;;;;;0.40;0.20;;;18.60;98.10;;;;;;5094739;28;20457;-86
2022/06/03 06:23:03;;;;;;;0.40;0.20;;;18.70;97.70;;;;;;5082556;28;20467;-84
2022/06/03 06:25:37;;;;;;;0.40;0.20;;;18.80;97.60;;;;;;5085878;28;20480;-85
2022/06/03 06:28:06;;;;;;;0.40;0.30;;;18.90;98.20;;;;;;5079563;28;20576;-84
2022/06/03 06:31:11;;;;;;;0.30;0.20;;;18.90;97.40;;;;;;5079203;28;20463;-83
2022/06/03 06:34:05;;;;;;;0.40;0.30;;;19.10;98.00;;;;;;5081864;28;20569;-83
2022/06/03 06:37:17;;;;;;;0.40;0.20;;;19.30;96.90;;;;;;5080408;28;20520;-83
2022/06/03 06:39:57;;;;;;;0.40;0.20;;;19.20;96.90;;;;;;5072683;28;20570;-83
2022/06/03 06:42:36;;;;;;;0.40;0.20;;;19.40;97.00;;;;;;5080697;28;20953;-85
2022/06/03 06:45:16;;;;;;;0.40;0.20;;;19.70;96.30;;;;;;5078452;28;20512;-83
2022/06/03 06:47:49;;;;;;;0.40;0.20;;;19.80;96.00;;;;;;5081644;28;20452;-83
2022/06/03 06:50:23;;;;;;;1.07;1.07;;;20.00;96.10;;;;;;5078451;28;20464;-83
2022/06/03 06:52:58;;;;;;;0.40;0.20;;;20.00;96.30;;;;;;5079971;28;20488;-88
2022/06/03 06:55:40;;;;;;;0.40;0.30;;;20.10;96.40;;;;;;5077489;28;20449;-88
2022/06/03 06:58:42;;;;;;;0.40;0.20;;;20.20;95.80;;;;;;5082603;28;20456;-94
2022/06/03 07:01:12;;;;;;;0.40;0.20;;;20.40;96.40;;;;;;5079114;28;20465;-87
2022/06/03 07:03:55;;;;;;;0.40;0.20;;;20.40;96.00;;;;;;5079735;28;20997;-85
2022/06/03 07:06:31;;;;;;;0.40;0.20;;;20.40;95.80;;;;;;5080251;28;20492;-87
2022/06/03 07:09:08;;;;;;;0.40;0.20;;;20.40;95.60;;;;;;5081234;28;20576;-86
2022/06/03 07:11:47;;;;;;;0.40;0.20;;;20.50;96.20;;;;;;5079283;28;20462;-85
2022/06/03 07:14:21;;;;;;;0.40;0.30;;;20.60;96.50;;;;;;5081383;28;20490;-87
2022/06/03 07:19:50;;;;;;;0.40;0.20;;;20.80;95.60;;;;;;5083340;28;20423;-86
2022/06/03 07:22:26;;;;;;;0.40;0.20;;;20.70;96.10;;;;;;5082564;28;20468;-86
2022/06/03 07:24:59;;;;;;;0.40;0.20;;;20.80;95.60;;;;;;5082647;28;20527;-85
2022/06/03 07:27:31;;;;;;;0.40;0.20;;;20.50;95.30;;;;;;5079848;28;20544;-86
2022/06/03 07:30:05;;;;;;;0.50;0.40;;;20.40;97.20;;;;;;5077575;28;20459;-86
2022/06/03 07:32:40;;;;;;;0.40;0.20;;;20.70;96.50;;;;;;5083337;28;20559;-86
2022/06/03 07:35:15;;;;;;;0.40;0.30;;;21.00;95.70;;;;;;5080244;28;20994;-87
2022/06/03 07:37:51;;;;;;;0.40;0.27;;;21.20;95.00;;;;;;5072226;28;20462;-86
2022/06/03 07:40:24;;;;;;;0.43;0.30;;;21.30;94.60;;;;;;5078865;28;20490;-84
2022/06/03 07:42:58;;;;;;;0.40;0.30;;;21.50;94.40;;;;;;5075897;28;20852;-84
2022/06/03 07:45:37;;;;;;;0.40;0.20;;;21.90;95.30;;;;;;5079632;28;22051;-85
2022/06/03 07:48:06;;;;;;;0.40;0.23;;;21.80;94.90;;;;;;5081137;28;20451;-84
2022/06/03 07:50:41;;;;;;;0.40;0.20;;;22.20;94.50;;;;;;5083008;28;20925;-85
2022/06/03 07:53:15;;;;;;;0.40;0.20;;;22.30;93.80;;;;;;5079687;28;20482;-84
2022/06/03 07:55:42;;;;;;;0.40;0.20;;;21.90;93.40;;;;;;5081246;28;20458;-84
2022/06/03 07:58:18;;;;;;;0.40;0.20;;;22.00;94.80;;;;;;5080241;28;20459;-84
2022/06/03 08:00:46;;;;;;;0.40;0.20;;;22.00;95.00;;;;;;5080094;28;20466;-84
2022/06/03 08:03:18;;;;;;;0.40;0.20;;;22.30;95.30;;;;;;5087603;28;20527;-83
2022/06/03 08:05:47;;;;;;;0.40;0.20;;;22.40;93.50;;;;;;5077632;28;20461;-84
2022/06/03 08:11:06;;;;;;;0.40;0.20;;;22.20;95.10;;;;;;5077687;28;20461;-84
2022/06/03 08:13:47;;;;;;;0.60;0.60;;;22.10;94.20;;;;;;5078061;28;20482;-85
2022/06/03 08:16:24;;;;;;;0.50;0.40;;;22.20;94.50;;;;;;5076641;28;20459;-85
2022/06/03 08:18:55;;;;;;;0.40;0.20;;;22.40;94.80;;;;;;5078158;28;20985;-86
2022/06/03 08:21:27;;;;;;;0.40;0.30;;;22.40;93.90;;;;;;5077144;28;20545;-88
2022/06/03 08:23:56;;;;;;;0.40;0.30;;;22.50;94.70;;;;;;5076373;28;21020;-86
2022/06/03 08:26:26;;;;;;;0.40;0.20;;;22.40;94.30;;;;;;5079758;28;20470;-86
2022/06/03 08:29:02;;;;;;;0.40;0.20;;;22.50;94.10;;;;;;5077548;28;20491;-86
2022/06/03 08:31:32;;;;;;;0.40;0.20;;;22.70;95.10;;;;;;5082202;28;20451;-87
2022/06/03 08:34:02;;;;;;;0.63;0.63;;;22.60;94.00;;;;;;5079604;28;20478;-85
2022/06/03 08:36:33;;;;;;;0.40;0.20;;;22.70;96.00;;;;;;5079869;28;20497;-85
2022/06/03 08:39:05;;;;;;;0.40;0.30;;;22.70;93.40;;;;;;5079835;28;20482;-87
2022/06/03 08:41:58;;;;;;;0.40;0.20;;;22.60;93.90;;;;;;5076777;28;20479;-85
2022/06/03 08:44:36;;;;;;;0.40;0.30;;;22.60;94.40;;;;;;5077474;28;20828;-85
2022/06/03 08:47:12;;;;;;;0.40;0.27;;;22.70;94.50;;;;;;5078633;28;20455;-87
2022/06/03 08:50:00;;;;;;;0.40;0.20;;;22.60;95.10;;;;;;5079107;28;21118;-86
2022/06/03 08:52:38;;;;;;;0.40;0.20;;;23.00;94.40;;;;;;5079623;28;20530;-84
2022/06/03 08:55:22;;;;;;;0.53;0.53;;;22.90;94.30;;;;;;5085650;28;20447;-83
2022/06/03 08:57:54;;;;;;;0.40;0.20;;;23.00;93.80;;;;;;5084521;28;20446;-83
2022/06/03 09:00:25;;;;;;;0.40;0.20;;;22.90;94.00;;;;;;5087025;28;20460;-84
2022/06/03 09:03:00;;;;;;;0.40;0.20;;;23.10;94.50;;;;;;5085756;28;21189;-83
2022/06/03 09:05:33;;;;;;;0.40;0.30;;;23.50;94.20;;;;;;5085239;28;20462;-83
2022/06/03 09:08:04;;;;;;;0.40;0.30;;;23.70;93.60;;;;;;5083510;28;20458;-84
2022/06/03 09:10:40;;;;;;;0.50;0.40;;;23.90;94.10;;;;;;5089350;28;20459;-86
2022/06/03 09:13:12;;;;;;;0.40;0.23;;;24.00;93.30;;;;;;5097700;28;20613;-85
2022/06/03 09:15:43;;;;;;;0.40;0.30;;;24.00;93.20;;;;;;5085273;28;20933;-86
2022/06/03 09:18:16;;;;;;;0.40;0.30;;;24.10;92.60;;;;;;5088039;28;20459;-85
2022/06/03 09:20:47;;;;;;;0.40;0.30;;;24.20;93.40;;;;;;5081251;28;20539;-85
2022/06/03 09:23:17;;;;;;;0.40;0.20;;;24.50;93.60;;;;;;5078024;28;20487;-85
2022/06/03 09:25:48;;;;;;;0.40;0.30;;;24.60;93.70;;;;;;5073178;28;20533;-85
2022/06/03 09:28:20;;;;;;;0.40;0.30;;;24.40;91.60;;;;;;5081808;28;20555;-86
2022/06/03 09:30:48;;;;;;;0.40;0.20;;;24.30;93.00;;;;;;5080016;28;20899;-85
2022/06/03 09:33:20;;;;;;;0.40;0.20;;;24.70;92.30;;;;;;5077515;28;20477;-86
2022/06/03 09:35:58;;;;;;;0.50;0.40;;;24.90;92.80;;;;;;5080784;28;20469;-85
2022/06/03 09:38:29;;;;;;;0.40;0.20;;;25.00;92.70;;;;;;5078466;28;20567;-87
2022/06/03 09:41:03;;;;;;;0.40;0.20;;;24.90;92.50;;;;;;5072829;28;20915;-87
2022/06/03 09:43:34;;;;;;;0.40;0.30;;;24.80;92.50;;;;;;5077221;28;20461;-86
2022/06/03 09:46:05;;;;;;;0.40;0.30;;;24.50;91.40;;;;;;5076038;28;21012;-86
2022/06/03 09:48:36;;;;;;;0.40;0.30;;;24.60;92.40;;;;;;5077480;28;20890;-85
2022/06/03 09:51:10;;;;;;;0.50;0.30;;;25.00;91.40;;;;;;5072828;28;20540;-86
2022/06/03 09:53:42;;;;;;;0.43;0.37;;;25.20;92.30;;;;;;5073917;28;20478;-85
2022/06/03 09:56:18;;;;;;;0.40;0.27;;;24.70;90.50;;;;;;5073613;28;20463;-86
2022/06/03 09:58:45;;;;;;;0.40;0.30;;;24.90;93.40;;;;;;5071282;28;20496;-87
2022/06/03 10:01:12;;;;;;;0.40;0.20;;;25.00;91.90;;;;;;5073272;28;20528;-87
2022/06/03 10:03:42;;;;;;;0.73;0.60;;;24.90;92.60;;;;;;5078822;28;20466;-86
2022/06/03 10:06:42;;;;;;;0.40;0.30;;;24.90;91.70;;;;;;5070752;28;20456;-87
2022/06/03 10:14:25;;;;;;;0.50;0.30;;;25.00;93.10;;;;;;5077291;28;20478;-84
2022/06/03 10:16:52;;;;;;;0.40;0.27;;;25.00;90.60;;;;;;5075901;28;20467;-85
2022/06/03 10:19:21;;;;;;;0.57;0.40;;;25.30;91.60;;;;;;5079715;28;20540;-85
2022/06/03 10:21:53;;;;;;;0.67;0.37;;;25.50;91.90;;;;;;5080850;28;20458;-85
2022/06/03 10:24:24;;;;;;;0.40;0.20;;;25.20;91.20;;;;;;5079339;28;20826;-86
2022/06/03 10:26:52;;;;;;;0.40;0.20;;;25.00;91.60;;;;;;5075457;28;20557;-85
2022/06/03 10:29:22;;;;;;;0.40;0.30;;;25.20;91.90;;;;;;5081615;28;20493;-85
2022/06/03 10:31:51;;;;;;;0.70;0.50;;;25.20;92.50;;;;;;5076852;28;20466;-86
2022/06/03 10:34:24;;;;;;;0.40;0.27;;;25.60;91.40;;;;;;5079497;28;20864;-86
2022/06/03 10:36:55;;;;;;;0.70;0.40;;;25.70;92.00;;;;;;5078583;28;20949;-87
2022/06/03 10:39:27;;;;;;;0.40;0.30;;;25.40;91.50;;;;;;5082391;28;20461;-86
2022/06/03 10:41:58;;;;;;;0.40;0.20;;;25.50;91.00;;;;;;5080918;28;20455;-87
2022/06/03 10:44:28;;;;;;;1.07;0.30;;;25.90;91.60;;;;;;5083602;28;20914;-86
2022/06/03 10:46:58;;;;;;;0.40;0.20;;;25.90;90.60;;;;;;5072133;28;20467;-87
2022/06/03 10:49:28;;;;;;;0.40;0.30;;;25.70;87.50;;;;;;5073135;28;20466;-87
2022/06/03 11:03:25;;;;;;;0.40;0.30;;;26.40;91.30;;;;;;5104565;28;20435;-87
2022/06/03 11:05:54;;;;;;;0.40;0.30;;;26.50;90.60;;;;;;5099192;28;20499;-87
2022/06/03 11:08:21;;;;;;;0.40;0.20;;;26.30;88.00;;;;;;5107158;28;20454;-89
2022/06/03 11:10:50;;;;;;;0.40;0.30;;;26.30;88.10;;;;;;5103861;28;20466;-87
2022/06/03 11:13:28;;;;;;;0.40;0.20;;;26.50;87.60;;;;;;5103307;28;20494;-87
2022/06/03 11:15:55;;;;;;;0.40;0.30;;;26.60;88.60;;;;;;5104458;28;20522;-88
2022/06/03 11:18:28;;;;;;;0.40;0.30;;;26.70;87.70;;;;;;5080647;28;20532;-87
2022/06/03 11:20:58;;;;;;;0.40;0.30;;;26.60;88.50;;;;;;5080850;28;20442;-87
2022/06/03 11:23:25;;;;;;;0.40;0.30;;;26.30;87.70;;;;;;5081407;28;20486;-89
2022/06/03 11:25:54;;;;;;;0.40;0.30;;;26.50;86.60;;;;;;5075140;28;20474;-87
2022/06/03 11:28:28;;;;;;;0.40;0.30;;;26.70;87.00;;;;;;5086570;28;20529;-89
2022/06/03 11:31:01;;;;;;;0.40;0.30;;;26.70;86.70;;;;;;5082211;28;20512;-88
2022/06/03 11:33:35;;;;;;;0.40;0.30;;;26.60;86.70;;;;;;5082846;28;20468;-87
2022/06/03 11:36:08;;;;;;;0.40;0.20;;;26.70;85.90;;;;;;5085763;28;20488;-87
2022/06/03 11:38:40;;;;;;;0.40;0.30;;;26.80;85.70;;;;;;5089780;28;20447;-87
2022/06/03 11:41:11;;;;;;;0.40;0.30;;;26.80;88.20;;;;;;5086404;28;20451;-87
2022/06/03 11:43:44;;;;;;;0.40;0.27;;;26.70;87.20;;;;;;5085311;28;21021;-88
2022/06/03 11:46:16;;;;;;;0.40;0.20;;;26.70;87.40;;;;;;5086483;28;20467;-87
2022/06/03 11:48:45;;;;;;;0.40;0.20;;;26.70;84.90;;;;;;5080569;28;20467;-87
2022/06/03 11:51:14;;;;;;;0.40;0.30;;;26.90;87.00;;;;;;5087348;28;20508;-87
2022/06/03 11:53:47;;;;;;;0.40;0.30;;;26.80;82.10;;;;;;5090289;28;20969;-88
2022/06/03 11:56:17;;;;;;;0.40;0.20;;;26.80;85.80;;;;;;5087643;28;20450;-87
2022/06/03 11:58:56;;;;;;;0.40;0.20;;;27.00;86.30;;;;;;5087420;28;20473;-86
2022/06/03 12:01:32;;;;;;;0.40;0.20;;;26.80;83.80;;;;;;5086770;28;20458;-87
2022/06/03 12:04:10;;;;;;;0.40;0.20;;;26.80;85.90;;;;;;5083962;28;20457;-87
2022/06/03 12:06:43;;;;;;;0.60;0.50;;;26.90;85.40;;;;;;5090823;28;20511;-87
2022/06/03 12:09:34;;;;;;;0.40;0.30;;;27.40;84.50;;;;;;5104467;28;20492;-87
2022/06/03 12:15:34;;;;;;;0.40;0.20;;;27.80;84.10;;;;;;5023575;28;20492;-86
2022/06/03 12:18:17;;;;;;;0.40;0.27;;;27.50;81.10;;;;;;5086617;28;20985;-88
2022/06/03 12:20:55;;;;;;;0.40;0.40;;;27.40;80.50;;;;;;5081738;28;21071;-87
2022/06/03 12:23:54;;;;;;;0.40;0.30;;;27.40;83.30;;;;;;5094987;28;20482;-87
2022/06/03 12:26:26;;;;;;;0.40;0.30;;;27.50;81.20;;;;;;5088404;28;20451;-87
2022/06/03 12:28:56;;;;;;;0.50;0.33;;;27.50;83.30;;;;;;5084577;28;20860;-88
2022/06/03 12:31:43;;;;;;;0.40;0.20;;;27.70;81.90;;;;;;5087030;28;20447;-87
2022/06/03 12:34:23;;;;;;;0.50;0.40;;;28.00;81.40;;;;;;5081174;28;20482;-89
2022/06/03 12:37:00;;;;;;;0.40;0.20;;;28.10;82.40;;;;;;5091007;28;20439;-89
2022/06/03 12:39:30;;;;;;;0.40;0.30;;;28.50;79.10;;;;;;5085338;28;21180;-88
2022/06/03 12:42:08;;;;;;;0.40;0.30;;;28.40;77.30;;;;;;5086607;28;20498;-90
2022/06/03 12:44:46;;;;;;;0.40;0.20;;;28.50;80.20;;;;;;5084899;28;20458;-87
2022/06/03 12:47:45;;;;;;;0.40;0.30;;;28.50;77.90;;;;;;5084394;28;21177;-88
2022/06/03 12:50:37;;;;;;;0.40;0.20;;;28.40;79.30;;;;;;5086649;28;20454;-88
2022/06/03 12:53:37;;;;;;;0.40;0.30;;;28.50;80.10;;;;;;5087266;28;20523;-88
2022/06/03 12:56:11;;;;;;;0.40;0.20;;;28.60;80.10;;;;;;5081524;28;21105;-85
2022/06/03 12:58:48;;;;;;;0.50;0.33;;;28.70;79.10;;;;;;5086604;28;20848;-86
2022/06/03 13:01:41;;;;;;;0.40;0.20;;;28.70;78.80;;;;;;5081667;28;20476;-86
2022/06/03 13:04:41;;;;;;;0.60;0.30;;;28.60;81.40;;;;;;5079905;28;21052;-85
2022/06/03 13:07:55;;;;;;;0.40;0.30;;;28.80;79.90;;;;;;5092042;28;20806;-84
2022/06/03 13:10:31;;;;;;;0.40;0.30;;;28.80;80.80;;;;;;5077988;28;21111;-88
2022/06/03 13:13:37;;;;;;;0.40;0.30;;;28.80;80.30;;;;;;5083564;28;20447;-86
2022/06/03 13:16:41;;;;;;;0.40;0.30;;;29.00;80.60;;;;;;5071661;28;20506;-85
2022/06/03 13:19:44;;;;;;;0.40;0.20;;;29.10;79.60;;;;;;5076111;28;20447;-85
2022/06/03 13:22:28;;;;;;;0.40;0.30;;;28.90;81.00;;;;;;5086782;28;20447;-85
2022/06/03 13:25:33;;;;;;;0.40;0.30;;;29.30;77.30;;;;;;5081956;28;20485;-85
2022/06/03 13:28:31;;;;;;;0.40;0.30;;;29.30;81.20;;;;;;5082514;28;20845;-85
2022/06/03 13:31:20;;;;;;;0.40;0.30;;;29.20;78.70;;;;;;5079310;28;21118;-85
2022/06/03 13:34:17;;;;;;;0.40;0.30;;;28.90;80.40;;;;;;5083985;28;20450;-84
2022/06/03 13:37:16;;;;;;;0.40;0.30;;;28.80;82.50;;;;;;5070447;28;20450;-85
2022/06/03 13:40:07;;;;;;;0.40;0.30;;;28.90;79.70;;;;;;5086945;28;20455;-85
2022/06/03 13:43:02;;;;;;;0.40;0.23;;;29.00;80.90;;;;;;5081330;28;20966;-89
2022/06/03 13:45:53;;;;;;;0.40;0.30;;;28.90;78.70;;;;;;5080949;28;20463;-86
2022/06/03 13:48:26;;;;;;;0.40;0.20;;;28.40;78.70;;;;;;5083430;28;20457;-87
2022/06/03 13:50:54;;;;;;;0.40;0.20;;;28.60;79.40;;;;;;5088138;28;20437;-85
2022/06/03 13:53:31;;;;;;;0.40;0.20;;;28.70;80.80;;;;;;5084044;28;20462;-85
2022/06/03 13:56:04;;;;;;;0.50;0.30;;;28.90;81.30;;;;;;5083209;28;21450;-86
2022/06/03 13:58:36;;;;;;;0.40;0.30;;;29.00;80.00;;;;;;5094913;28;20482;-85
2022/06/03 14:01:09;;;;;;;0.40;0.40;;;28.90;78.30;;;;;;5090450;28;20451;-85
2022/06/03 14:03:41;;;;;;;0.50;0.30;;;28.90;78.60;;;;;;5088149;28;20519;-85
2022/06/03 14:06:30;;;;;;;0.40;0.30;;;28.40;79.10;;;;;;5087679;28;20455;-85
2022/06/03 14:09:04;;;;;;;0.60;0.40;;;28.40;78.20;;;;;;5084563;28;20496;-87
2022/06/03 14:11:35;;;;;;;0.40;0.20;;;28.60;79.00;;;;;;5075112;28;20455;-86
2022/06/03 14:14:09;;;;;;;0.40;0.30;;;28.50;78.20;;;;;;5084810;28;20447;-87
2022/06/03 14:16:41;;;;;;;0.40;0.20;;;28.60;81.50;;;;;;5082912;28;20850;-86
2022/06/03 14:19:32;;;;;;;0.40;0.27;;;28.70;80.90;;;;;;5079813;28;20527;-87
2022/06/03 14:22:07;;;;;;;0.40;0.30;;;29.00;78.90;;;;;;5074052;28;20473;-86
2022/06/03 14:24:38;;;;;;;0.40;0.20;;;29.10;79.50;;;;;;5083958;28;20477;-85
2022/06/03 14:27:13;;;;;;;0.40;0.30;;;28.90;77.80;;;;;;5083918;28;20458;-89
2022/06/03 14:29:48;;;;;;;0.70;0.30;;;28.90;79.50;;;;;;5084649;28;20920;-86
2022/06/03 14:32:20;;;;;;;0.40;0.20;;;28.50;80.00;;;;;;5081926;28;20486;-85
2022/06/03 14:34:50;;;;;;;0.40;0.27;;;28.40;82.60;;;;;;5084596;28;20483;-85
2022/06/03 14:37:22;;;;;;;0.50;0.30;;;28.40;82.10;;;;;;5084445;28;20438;-88
2022/06/03 14:39:53;;;;;;;0.40;0.20;;;28.20;83.60;;;;;;5083403;28;20455;-89
2022/06/03 14:42:29;;;;;;;0.40;0.30;;;28.10;80.60;;;;;;5084338;28;20485;-86
2022/06/03 14:44:57;;;;;;;0.40;0.30;;;28.10;81.00;;;;;;5084926;28;20454;-85
2022/06/03 14:47:31;;;;;;;0.40;0.30;;;27.90;81.10;;;;;;5074531;28;20466;-85